createdAt,value
2023-09-13T00:00:44.145Z,90.50
2023-09-13T00:01:44.265Z,78.80
2023-09-13T00:02:44.148Z,70.70
2023-09-13T00:03:44.607Z,68.10
2023-09-13T00:04:44.135Z,79.30
2023-09-13T00:05:44.095Z,77.30
2023-09-13T00:06:44.066Z,79.90
2023-09-13T00:07:44.062Z,81.40
2023-09-13T00:08:44.094Z,80.80
2023-09-13T00:09:44.051Z,76.90
2023-09-13T00:10:44.069Z,71.10
2023-09-13T00:11:44.011Z,74.30
2023-09-13T00:12:44.043Z,76.20
2023-09-13T00:13:44.160Z,85.70
2023-09-13T00:14:43.960Z,88.60
2023-09-13T00:15:43.981Z,84.10
2023-09-13T00:16:43.984Z,76.60
2023-09-13T00:17:44.056Z,81.40
2023-09-13T00:18:43.941Z,78.40
2023-09-13T00:19:43.921Z,79.30
2023-09-13T00:20:43.913Z,72.20
2023-09-13T00:21:43.987Z,73.00
2023-09-13T00:22:43.896Z,76.50
2023-09-13T00:23:44.192Z,77.30
2023-09-13T00:24:43.898Z,72.10
2023-09-13T00:25:43.886Z,68.60
2023-09-13T00:26:43.884Z,64.70
2023-09-13T00:27:43.868Z,67.40
2023-09-13T00:28:43.824Z,69.90
2023-09-13T00:29:43.824Z,70.90
2023-09-13T00:30:43.894Z,73.50
2023-09-13T00:31:43.944Z,72.60
2023-09-13T00:32:43.822Z,67.30
2023-09-13T00:33:44.082Z,61.70
2023-09-13T00:34:43.747Z,57.60
2023-09-13T00:35:43.774Z,56.40
2023-09-13T00:36:43.797Z,57.70
2023-09-13T00:37:43.755Z,55.50
2023-09-13T00:38:43.711Z,56.30
2023-09-13T00:39:43.717Z,49.30
2023-09-13T00:40:43.715Z,42.50
2023-09-13T00:41:43.689Z,42.00
2023-09-13T00:42:43.684Z,35.30
2023-09-13T00:43:43.859Z,39.30
2023-09-13T00:44:43.680Z,40.00
2023-09-13T00:45:43.734Z,31.60
2023-09-13T00:46:43.676Z,32.60
2023-09-13T00:47:43.672Z,31.10
2023-09-13T00:48:43.693Z,30.50
2023-09-13T00:49:43.615Z,33.60
2023-09-13T00:50:53.224Z,27.10
2023-09-13T00:51:43.617Z,31.60
2023-09-13T00:52:43.556Z,47.60
2023-09-13T00:53:43.906Z,55.50
2023-09-13T00:54:43.608Z,51.90
2023-09-13T00:55:43.551Z,35.40
2023-09-13T00:56:43.542Z,30.00
2023-09-13T00:57:43.588Z,33.80
2023-09-13T00:58:43.532Z,34.30
2023-09-13T00:59:51.274Z,48.40
2023-09-13T01:00:43.536Z,51.30
2023-09-13T01:01:43.497Z,64.60
2023-09-13T01:02:43.553Z,69.40
2023-09-13T01:03:43.929Z,64.90
2023-09-13T01:04:43.506Z,75.20
2023-09-13T01:05:43.437Z,67.90
2023-09-13T01:06:43.488Z,56.50
2023-09-13T01:07:43.397Z,51.60
2023-09-13T01:08:43.455Z,60.60
2023-09-13T01:09:43.441Z,77.40
2023-09-13T01:10:43.369Z,75.20
2023-09-13T01:11:43.389Z,69.10
2023-09-13T01:12:43.431Z,66.70
2023-09-13T01:13:43.633Z,86.60
2023-09-13T01:14:43.345Z,96.60
2023-09-13T01:15:43.464Z,101.10
2023-09-13T01:16:43.442Z,92.90
2023-09-13T01:17:43.401Z,90.90
2023-09-13T01:18:43.343Z,93.00
2023-09-13T01:19:43.288Z,96.50
2023-09-13T01:20:43.285Z,102.60
2023-09-13T01:21:43.283Z,112.80
2023-09-13T01:22:43.274Z,114.50
2023-09-13T01:23:44.112Z,111.60
2023-09-13T01:24:43.248Z,110.30
2023-09-13T01:25:43.265Z,126.30
2023-09-13T01:26:43.237Z,121.90
2023-09-13T01:27:43.255Z,102.60
2023-09-13T01:28:43.187Z,103.80
2023-09-13T01:29:43.184Z,95.70
2023-09-13T01:30:43.242Z,92.30
2023-09-13T01:31:43.248Z,98.50
2023-09-13T01:32:43.152Z,105.40
2023-09-13T01:33:43.402Z,100.30
2023-09-13T01:34:43.124Z,102.40
2023-09-13T01:35:43.161Z,114.10
2023-09-13T01:36:43.166Z,125.80
2023-09-13T01:37:43.095Z,120.50
2023-09-13T01:38:43.104Z,103.60
2023-09-13T01:39:43.089Z,98.20
2023-09-13T01:40:43.111Z,90.10
2023-09-13T01:41:43.070Z,82.20
2023-09-13T01:42:43.084Z,74.00
2023-09-13T01:43:43.291Z,84.60
2023-09-13T01:44:49.542Z,103.00
2023-09-13T01:45:43.091Z,120.00
2023-09-13T01:46:43.064Z,116.50
2023-09-13T01:47:43.004Z,97.40
2023-09-13T01:48:43.057Z,80.30
2023-09-13T01:49:42.960Z,80.80
2023-09-13T01:50:43.002Z,89.50
2023-09-13T01:51:42.977Z,88.80
2023-09-13T01:52:42.929Z,91.80
2023-09-13T01:53:43.239Z,80.70
2023-09-13T01:54:43.006Z,73.30
2023-09-13T01:55:42.957Z,59.00
2023-09-13T01:56:42.889Z,57.80
2023-09-13T01:57:42.910Z,64.20
2023-09-13T01:58:42.872Z,72.80
2023-09-13T01:59:42.914Z,72.60
2023-09-13T02:00:42.911Z,69.40
2023-09-13T02:01:42.937Z,80.10
2023-09-13T02:02:42.863Z,93.20
2023-09-13T02:03:43.076Z,97.60
2023-09-13T02:04:42.893Z,96.90
2023-09-13T02:05:43.611Z,109.60
2023-09-13T02:06:42.879Z,113.10
2023-09-13T02:07:42.779Z,109.10
2023-09-13T02:08:42.834Z,113.00
2023-09-13T02:09:42.865Z,105.90
2023-09-13T02:10:42.757Z,96.90
2023-09-13T02:11:42.801Z,83.60
2023-09-13T02:12:42.795Z,75.50
2023-09-13T02:13:43.158Z,69.30
2023-09-13T02:14:42.720Z,74.80
2023-09-13T02:15:42.822Z,86.50
2023-09-13T02:16:42.809Z,97.90
2023-09-13T02:17:42.803Z,100.80
2023-09-13T02:18:42.760Z,92.30
2023-09-13T02:19:42.737Z,95.80
2023-09-13T02:20:42.645Z,96.20
2023-09-13T02:21:42.712Z,101.10
2023-09-13T02:22:42.697Z,98.60
2023-09-13T02:23:42.862Z,84.10
2023-09-13T02:24:42.654Z,81.30
2023-09-13T02:25:42.723Z,76.00
2023-09-13T02:26:42.616Z,73.50
2023-09-13T02:27:42.722Z,63.60
2023-09-13T02:28:42.582Z,70.00
2023-09-13T02:29:42.587Z,67.90
2023-09-13T02:30:42.598Z,63.50
2023-09-13T02:31:42.657Z,72.10
2023-09-13T02:32:42.626Z,72.20
2023-09-13T02:33:42.785Z,80.30
2023-09-13T02:34:42.521Z,85.70
2023-09-13T02:35:42.509Z,98.90
2023-09-13T02:36:42.549Z,99.70
2023-09-13T02:37:42.500Z,102.70
2023-09-13T02:38:42.463Z,109.20
2023-09-13T02:39:42.540Z,105.70
2023-09-13T02:40:42.454Z,103.00
2023-09-13T02:41:50.326Z,96.80
2023-09-13T02:42:42.441Z,106.40
2023-09-13T02:43:42.852Z,94.80
2023-09-13T02:44:42.427Z,93.10
2023-09-13T02:45:42.550Z,90.50
2023-09-13T02:46:42.440Z,80.00
2023-09-13T02:47:42.406Z,92.70
2023-09-13T02:48:42.519Z,100.20
2023-09-13T02:49:42.366Z,95.50
2023-09-13T02:50:42.418Z,80.30
2023-09-13T02:51:42.475Z,70.50
2023-09-13T02:52:42.322Z,86.90
2023-09-13T02:53:42.605Z,101.30
2023-09-13T02:54:42.326Z,101.00
2023-09-13T02:55:42.333Z,94.30
2023-09-13T02:56:42.296Z,81.30
2023-09-13T02:57:42.283Z,81.70
2023-09-13T02:58:42.278Z,75.60
2023-09-13T02:59:42.296Z,73.00
2023-09-13T03:00:42.327Z,92.70
2023-09-13T03:01:42.301Z,82.00
2023-09-13T03:02:42.298Z,78.30
2023-09-13T03:03:42.582Z,65.10
2023-09-13T03:04:42.308Z,65.40
2023-09-13T03:05:42.217Z,69.40
2023-09-13T03:06:42.193Z,67.50
2023-09-13T03:07:42.178Z,70.00
2023-09-13T03:08:42.188Z,80.00
2023-09-13T03:09:42.199Z,94.40
2023-09-13T03:10:42.182Z,91.00
2023-09-13T03:11:42.127Z,75.00
2023-09-13T03:12:42.165Z,74.90
2023-09-13T03:13:42.566Z,59.60
2023-09-13T03:14:42.129Z,67.20
2023-09-13T03:15:42.096Z,81.10
2023-09-13T03:16:42.185Z,95.70
2023-09-13T03:17:42.119Z,100.10
2023-09-13T03:18:42.164Z,102.20
2023-09-13T03:19:42.086Z,94.50
2023-09-13T03:20:42.061Z,89.60
2023-09-13T03:21:42.064Z,85.00
2023-09-13T03:22:42.037Z,86.30
2023-09-13T03:23:42.354Z,86.30
2023-09-13T03:24:42.009Z,80.10
2023-09-13T03:25:42.003Z,75.70
2023-09-13T03:26:41.970Z,74.90
2023-09-13T03:27:41.993Z,79.70
2023-09-13T03:28:41.969Z,82.50
2023-09-13T03:29:41.935Z,89.00
2023-09-13T03:30:41.976Z,88.60
2023-09-13T03:31:41.996Z,87.00
2023-09-13T03:32:41.955Z,82.00
2023-09-13T03:33:42.232Z,90.50
2023-09-13T03:34:41.887Z,94.70
2023-09-13T03:35:41.886Z,89.90
2023-09-13T03:36:41.891Z,72.80
2023-09-13T03:37:41.871Z,79.90
2023-09-13T03:38:41.841Z,87.40
2023-09-13T03:39:41.837Z,89.30
2023-09-13T03:40:41.868Z,81.20
2023-09-13T03:41:41.850Z,83.50
2023-09-13T03:42:41.832Z,80.80
2023-09-13T03:43:42.260Z,77.00
2023-09-13T03:44:41.789Z,74.90
2023-09-13T03:45:41.787Z,73.40
2023-09-13T03:46:41.905Z,89.20
2023-09-13T03:47:41.830Z,92.70
2023-09-13T03:48:41.739Z,92.30
2023-09-13T03:49:41.758Z,100.00
2023-09-13T03:50:41.745Z,84.90
2023-09-13T03:51:41.725Z,84.80
2023-09-13T03:52:41.719Z,81.10
2023-09-13T03:53:41.745Z,75.90
2023-09-13T03:54:41.705Z,69.80
2023-09-13T03:55:41.757Z,83.30
2023-09-13T03:56:41.664Z,92.50
2023-09-13T03:57:41.649Z,98.20
2023-09-13T03:58:41.663Z,89.90
2023-09-13T03:59:41.615Z,89.20
2023-09-13T04:00:41.637Z,89.60
2023-09-13T04:01:41.706Z,82.50
2023-09-13T04:02:41.646Z,76.50
2023-09-13T04:03:41.617Z,78.00
2023-09-13T04:04:41.698Z,83.60
2023-09-13T04:05:41.642Z,95.20
2023-09-13T04:06:41.740Z,106.20
2023-09-13T04:07:41.600Z,96.80
2023-09-13T04:08:41.541Z,90.20
2023-09-13T04:09:41.545Z,78.40
2023-09-13T04:10:41.534Z,75.60
2023-09-13T04:11:41.504Z,79.40
2023-09-13T04:12:41.510Z,83.30
2023-09-13T04:13:41.497Z,92.40
2023-09-13T04:14:41.505Z,92.70
2023-09-13T04:15:41.517Z,105.00
2023-09-13T04:16:41.527Z,109.80
2023-09-13T04:17:41.486Z,103.80
2023-09-13T04:18:41.478Z,103.20
2023-09-13T04:19:41.438Z,102.20
2023-09-13T04:20:41.415Z,95.90
2023-09-13T04:21:41.420Z,98.90
2023-09-13T04:22:41.383Z,101.60
2023-09-13T04:23:41.413Z,95.40
2023-09-13T04:24:41.376Z,99.90
2023-09-13T04:25:41.349Z,102.70
2023-09-13T04:26:41.372Z,101.00
2023-09-13T04:27:41.394Z,93.70
2023-09-13T04:28:41.361Z,96.90
2023-09-13T04:29:41.347Z,102.10
2023-09-13T04:30:41.305Z,101.30
2023-09-13T04:31:41.380Z,102.90
2023-09-13T04:32:41.420Z,102.20
2023-09-13T04:33:41.558Z,100.40
2023-09-13T04:34:41.264Z,91.70
2023-09-13T04:35:41.289Z,90.90
2023-09-13T04:36:41.254Z,91.20
2023-09-13T04:37:41.266Z,92.20
2023-09-13T04:38:41.173Z,96.20
2023-09-13T04:39:41.237Z,104.50
2023-09-13T04:40:41.178Z,100.20
2023-09-13T04:41:41.226Z,92.50
2023-09-13T04:42:41.218Z,99.30
2023-09-13T04:43:41.119Z,96.90
2023-09-13T04:44:41.147Z,98.80
2023-09-13T04:45:41.265Z,100.10
2023-09-13T04:46:41.242Z,100.10
2023-09-13T04:47:41.235Z,104.10
2023-09-13T04:48:41.075Z,106.20
2023-09-13T04:49:41.073Z,110.90
2023-09-13T04:50:41.050Z,113.20
2023-09-13T04:51:41.066Z,110.50
2023-09-13T04:52:41.038Z,113.10
2023-09-13T04:53:41.037Z,107.70
2023-09-13T04:54:41.026Z,104.50
2023-09-13T04:55:41.002Z,103.70
2023-09-13T04:56:41.057Z,103.20
2023-09-13T04:57:40.974Z,104.40
2023-09-13T04:58:41.034Z,104.10
2023-09-13T04:59:40.970Z,98.00
2023-09-13T05:00:41.011Z,103.20
2023-09-13T05:01:41.018Z,110.40
2023-09-13T05:02:41.100Z,109.30
2023-09-13T05:03:41.042Z,110.80
2023-09-13T05:04:40.975Z,110.20
2023-09-13T05:05:40.930Z,112.90
2023-09-13T05:06:40.905Z,105.50
2023-09-13T05:07:40.885Z,99.70
2023-09-13T05:08:40.881Z,107.90
2023-09-13T05:09:40.965Z,108.50
2023-09-13T05:10:40.907Z,110.00
2023-09-13T05:11:40.849Z,108.80
2023-09-13T05:12:40.884Z,109.60
2023-09-13T05:13:40.920Z,112.40
2023-09-13T05:14:40.881Z,111.30
2023-09-13T05:15:40.833Z,110.90
2023-09-13T05:16:40.951Z,110.50
2023-09-13T05:17:40.836Z,104.80
2023-09-13T05:18:40.759Z,101.80
2023-09-13T05:19:40.798Z,102.60
2023-09-13T05:20:40.756Z,99.00
2023-09-13T05:21:40.729Z,102.20
2023-09-13T05:22:40.766Z,104.50
2023-09-13T05:23:40.697Z,105.00
2023-09-13T05:24:40.739Z,107.80
2023-09-13T05:25:40.678Z,104.80
2023-09-13T05:26:40.676Z,100.40
2023-09-13T05:27:40.685Z,104.10
2023-09-13T05:28:40.673Z,105.90
2023-09-13T05:29:40.660Z,95.60
2023-09-13T05:30:40.634Z,104.80
2023-09-13T05:31:40.712Z,102.70
2023-09-13T05:32:40.656Z,97.70
2023-09-13T05:33:40.698Z,89.30
2023-09-13T05:34:40.620Z,88.30
2023-09-13T05:35:40.573Z,89.30
2023-09-13T05:36:40.592Z,90.70
2023-09-13T05:37:40.555Z,96.40
2023-09-13T05:38:40.605Z,85.60
2023-09-13T05:39:40.568Z,87.90
2023-09-13T05:40:40.554Z,96.40
2023-09-13T05:41:40.514Z,93.60
2023-09-13T05:42:40.562Z,99.10
2023-09-13T05:43:40.551Z,100.80
2023-09-13T05:44:40.496Z,95.20
2023-09-13T05:45:40.534Z,93.90
2023-09-13T05:46:40.622Z,96.70
2023-09-13T05:47:40.538Z,100.40
2023-09-13T05:48:40.471Z,109.50
2023-09-13T05:49:40.432Z,108.20
2023-09-13T05:50:40.424Z,105.30
2023-09-13T05:51:40.407Z,106.60
2023-09-13T05:52:40.426Z,104.30
2023-09-13T05:53:40.399Z,104.70
2023-09-13T05:54:40.398Z,104.10
2023-09-13T05:55:40.362Z,106.60
2023-09-13T05:56:40.394Z,107.30
2023-09-13T05:57:40.365Z,109.70
2023-09-13T05:58:40.347Z,105.60
2023-09-13T05:59:40.323Z,110.50
2023-09-13T06:00:40.348Z,106.70
2023-09-13T06:01:40.633Z,101.10
2023-09-13T06:02:40.305Z,96.60
2023-09-13T06:03:40.355Z,96.10
2023-09-13T06:04:40.369Z,102.20
2023-09-13T06:05:40.253Z,102.90
2023-09-13T06:06:40.272Z,95.80
2023-09-13T06:07:40.235Z,92.90
2023-09-13T06:08:40.228Z,89.70
2023-09-13T06:09:40.311Z,90.90
2023-09-13T06:10:40.272Z,89.70
2023-09-13T06:11:40.254Z,88.00
2023-09-13T06:12:40.209Z,85.30
2023-09-13T06:13:40.168Z,86.70
2023-09-13T06:14:40.194Z,90.60
2023-09-13T06:15:40.271Z,88.50
2023-09-13T06:16:40.382Z,86.10
2023-09-13T06:17:40.157Z,87.50
2023-09-13T06:18:40.165Z,90.90
2023-09-13T06:19:40.119Z,84.80
2023-09-13T06:20:40.135Z,89.40
2023-09-13T06:21:40.096Z,92.10
2023-09-13T06:22:40.121Z,89.90
2023-09-13T06:23:40.351Z,81.70
2023-09-13T06:24:40.092Z,85.90
2023-09-13T06:25:40.129Z,85.30
2023-09-13T06:26:40.053Z,84.80
2023-09-13T06:27:40.029Z,90.90
2023-09-13T06:28:40.127Z,92.20
2023-09-13T06:29:40.052Z,95.80
2023-09-13T06:30:56.901Z,93.30
2023-09-13T06:31:55.577Z,92.30
2023-09-13T06:32:42.252Z,99.60
2023-09-13T06:33:42.803Z,96.10
2023-09-13T06:34:40.167Z,98.50
2023-09-13T06:35:40.171Z,97.50
2023-09-13T06:36:40.700Z,103.00
2023-09-13T06:37:40.719Z,109.40
2023-09-13T06:38:40.896Z,110.10
2023-09-13T06:39:40.591Z,110.50
2023-09-13T06:40:40.753Z,106.10
2023-09-13T06:41:40.093Z,107.90
2023-09-13T06:42:53.496Z,111.30
2023-09-13T06:43:53.981Z,104.90
2023-09-13T06:44:46.586Z,96.90
2023-09-13T06:45:55.765Z,98.50
2023-09-13T06:46:41.564Z,94.90
2023-09-13T06:47:40.081Z,97.50
2023-09-13T06:48:40.938Z,97.70
2023-09-13T06:49:41.050Z,99.10
2023-09-13T06:51:11.330Z,97.60
2023-09-13T06:52:53.974Z,99.90
2023-09-13T06:53:41.127Z,94.10
2023-09-13T06:54:40.572Z,96.00
2023-09-13T06:55:41.486Z,97.70
2023-09-13T06:56:41.372Z,90.50
2023-09-13T06:57:41.258Z,88.20
2023-09-13T06:58:43.026Z,90.10
2023-09-13T06:59:52.052Z,85.80
2023-09-13T07:00:48.332Z,94.90
2023-09-13T07:02:06.285Z,96.90
2023-09-13T07:02:41.746Z,88.90
2023-09-13T07:03:41.021Z,90.10
2023-09-13T07:04:42.039Z,95.80
2023-09-13T07:05:39.651Z,99.00
2023-09-13T07:06:39.737Z,93.90
2023-09-13T07:07:39.657Z,84.80
2023-09-13T07:08:39.624Z,87.80
2023-09-13T07:09:39.636Z,78.10
2023-09-13T07:10:39.636Z,77.60
2023-09-13T07:11:39.608Z,77.40
2023-09-13T07:12:39.544Z,91.30
2023-09-13T07:13:39.636Z,96.40
2023-09-13T07:14:39.547Z,99.10
2023-09-13T07:15:39.524Z,99.50
2023-09-13T07:16:39.583Z,104.60
2023-09-13T07:17:39.631Z,108.00
2023-09-13T07:18:39.559Z,105.40
2023-09-13T07:19:39.528Z,97.00
2023-09-13T07:20:39.477Z,107.90
2023-09-13T07:21:40.512Z,104.50
2023-09-13T07:22:39.495Z,105.10
2023-09-13T07:23:39.529Z,97.70
2023-09-13T07:24:39.445Z,94.00
2023-09-13T07:25:39.534Z,96.30
2023-09-13T07:26:39.514Z,92.60
2023-09-13T07:27:39.447Z,91.50
2023-09-13T07:28:39.500Z,87.70
2023-09-13T07:29:39.410Z,84.50
2023-09-13T07:30:39.567Z,86.30
2023-09-13T07:31:39.476Z,81.10
2023-09-13T07:32:39.429Z,93.10
2023-09-13T07:33:39.380Z,92.90
2023-09-13T07:34:39.410Z,96.00
2023-09-13T07:35:39.348Z,98.70
2023-09-13T07:36:39.331Z,101.30
2023-09-13T07:37:39.344Z,97.40
2023-09-13T07:38:39.291Z,92.00
2023-09-13T07:39:39.327Z,91.20
2023-09-13T07:40:39.280Z,84.00
2023-09-13T07:41:39.256Z,83.20
2023-09-13T07:42:39.237Z,83.00
2023-09-13T07:43:39.260Z,75.30
2023-09-13T07:44:39.243Z,75.50
2023-09-13T07:45:39.238Z,83.10
2023-09-13T07:46:39.262Z,91.10
2023-09-13T07:47:39.222Z,87.30
2023-09-13T07:48:39.202Z,89.90
2023-09-13T07:49:39.302Z,91.60
2023-09-13T07:50:39.152Z,95.60
2023-09-13T07:51:39.187Z,95.50
2023-09-13T07:53:03.304Z,96.60
2023-09-13T07:53:39.217Z,94.00
2023-09-13T07:54:39.103Z,97.10
2023-09-13T07:55:39.148Z,94.50
2023-09-13T07:56:39.117Z,105.30
2023-09-13T07:57:39.115Z,103.00
2023-09-13T07:58:39.117Z,100.30
2023-09-13T07:59:39.065Z,99.60
2023-09-13T08:00:39.135Z,109.00
2023-09-13T08:01:39.098Z,115.80
2023-09-13T08:02:39.072Z,109.70
2023-09-13T08:03:39.152Z,115.10
2023-09-13T08:04:39.128Z,116.40
2023-09-13T08:05:39.043Z,117.30
2023-09-13T08:06:39.034Z,109.90
2023-09-13T08:07:39.027Z,112.80
2023-09-13T08:08:38.991Z,117.00
2023-09-13T08:09:38.992Z,122.50
2023-09-13T08:10:38.998Z,116.30
2023-09-13T08:11:38.935Z,110.00
2023-09-13T08:12:39.011Z,107.10
2023-09-13T08:13:38.940Z,106.90
2023-09-13T08:14:38.908Z,114.30
2023-09-13T08:15:48.957Z,119.40
2023-09-13T08:16:38.970Z,118.60
2023-09-13T08:17:38.954Z,114.40
2023-09-13T08:18:38.892Z,113.30
2023-09-13T08:19:38.872Z,107.30
2023-09-13T08:20:38.885Z,113.20
2023-09-13T08:21:38.875Z,103.80
2023-09-13T08:22:40.627Z,112.00
2023-09-13T08:23:38.832Z,117.20
2023-09-13T08:24:38.792Z,115.80
2023-09-13T08:25:38.829Z,104.30
2023-09-13T08:26:38.828Z,105.60
2023-09-13T08:27:38.776Z,105.70
2023-09-13T08:28:38.778Z,99.30
2023-09-13T08:29:38.759Z,107.20
2023-09-13T08:30:38.801Z,100.70
2023-09-13T08:31:38.788Z,98.30
2023-09-13T08:32:38.713Z,103.60
2023-09-13T08:33:38.711Z,104.50
2023-09-13T08:34:38.715Z,110.60
2023-09-13T08:35:38.699Z,107.30
2023-09-13T08:36:38.671Z,101.60
2023-09-13T08:37:38.669Z,102.10
2023-09-13T08:38:38.634Z,105.10
2023-09-13T08:39:38.649Z,110.30
2023-09-13T08:40:38.670Z,110.80
2023-09-13T08:41:38.623Z,103.70
2023-09-13T08:42:38.599Z,107.20
2023-09-13T08:43:38.643Z,85.10
2023-09-13T08:44:38.623Z,38.60
2023-09-13T08:45:38.588Z,8.90
2023-09-13T08:46:38.813Z,7.00
2023-09-13T08:47:50.692Z,5.60
2023-09-13T08:48:38.609Z,3.70
2023-09-13T08:49:38.722Z,3.20
2023-09-13T08:50:38.529Z,1.80
2023-09-13T08:51:38.541Z,3.20
2023-09-13T08:52:38.548Z,1.40
2023-09-13T08:53:38.588Z,2.70
2023-09-13T08:54:55.501Z,1.50
2023-09-13T08:55:38.616Z,1.20
2023-09-13T08:56:38.471Z,2.30
2023-09-13T08:57:38.461Z,1.90
2023-09-13T08:58:38.491Z,0.90
2023-09-13T08:59:38.576Z,1.60
2023-09-13T09:00:38.541Z,4.00
2023-09-13T09:01:38.496Z,1.00
2023-09-13T09:02:38.524Z,0.80
2023-09-13T09:03:39.122Z,1.30
2023-09-13T09:04:38.413Z,0.70
2023-09-13T09:05:38.408Z,1.00
2023-09-13T09:06:38.350Z,1.10
2023-09-13T09:07:38.463Z,0.90
2023-09-13T09:08:38.363Z,1.60
2023-09-13T09:09:38.343Z,1.70
2023-09-13T09:10:38.352Z,2.60
2023-09-13T09:11:38.320Z,2.50
2023-09-13T09:12:38.309Z,1.20
2023-09-13T09:13:38.287Z,3.20
2023-09-13T09:14:38.298Z,1.60
2023-09-13T09:15:38.312Z,0.70
2023-09-13T09:16:38.297Z,1.60
2023-09-13T09:17:38.315Z,2.10
2023-09-13T09:18:38.237Z,0.90
2023-09-13T09:19:38.269Z,2.10
2023-09-13T09:20:38.248Z,3.10
2023-09-13T09:21:38.346Z,6.30
2023-09-13T09:22:38.270Z,1.20
2023-09-13T09:23:38.187Z,2.40
2023-09-13T09:24:38.220Z,3.00
2023-09-13T09:25:38.167Z,4.40
2023-09-13T09:26:38.209Z,1.60
2023-09-13T09:27:38.122Z,5.00
2023-09-13T09:28:38.174Z,0.90
2023-09-13T09:29:38.182Z,2.30
2023-09-13T09:30:38.099Z,0.90
2023-09-13T09:31:38.252Z,3.40
2023-09-13T09:32:38.270Z,2.40
2023-09-13T09:33:38.056Z,4.60
2023-09-13T09:34:38.106Z,1.50
2023-09-13T09:35:38.141Z,1.50
2023-09-13T09:36:38.075Z,3.20
2023-09-13T09:37:38.103Z,2.40
2023-09-13T09:38:38.027Z,1.10
2023-09-13T09:39:38.060Z,4.50
2023-09-13T09:40:38.064Z,1.20
2023-09-13T09:41:38.012Z,1.80
2023-09-13T09:42:37.991Z,1.80
2023-09-13T09:43:37.991Z,1.20
2023-09-13T09:44:37.969Z,4.00
2023-09-13T09:45:37.969Z,4.80
2023-09-13T09:46:37.994Z,1.00
2023-09-13T09:47:37.929Z,1.70
2023-09-13T09:48:37.921Z,0.80
2023-09-13T09:49:37.937Z,3.10
2023-09-13T09:50:37.910Z,2.60
2023-09-13T09:51:37.920Z,1.00
2023-09-13T09:52:37.905Z,4.20
2023-09-13T09:53:37.859Z,1.00
2023-09-13T09:54:37.959Z,3.10
2023-09-13T09:55:37.852Z,0.90
2023-09-13T09:56:37.864Z,1.20
2023-09-13T09:57:37.814Z,0.80
2023-09-13T09:58:37.840Z,4.70
2023-09-13T09:59:37.888Z,2.90
2023-09-13T10:00:37.861Z,1.10
2023-09-13T10:01:37.851Z,2.70
2023-09-13T10:02:37.824Z,1.90
2023-09-13T10:03:38.076Z,2.00
2023-09-13T10:04:37.813Z,1.40
2023-09-13T10:05:37.744Z,2.10
2023-09-13T10:06:37.718Z,2.00
2023-09-13T10:07:37.732Z,2.10
2023-09-13T10:08:37.719Z,2.60
2023-09-13T10:09:37.695Z,3.70
2023-09-13T10:10:37.703Z,1.40
2023-09-13T10:11:37.672Z,9.20
2023-09-13T10:12:37.638Z,3.70
2023-09-13T10:13:37.709Z,2.90
2023-09-13T10:14:37.622Z,2.00
2023-09-13T10:15:37.655Z,3.50
2023-09-13T10:16:37.648Z,1.20
2023-09-13T10:17:37.653Z,2.20
2023-09-13T10:18:37.644Z,2.60
2023-09-13T10:19:37.623Z,1.30
2023-09-13T10:20:37.552Z,1.60
2023-09-13T10:21:37.575Z,1.90
2023-09-13T10:22:37.650Z,2.20
2023-09-13T10:23:37.530Z,2.40
2023-09-13T10:24:37.537Z,3.00
2023-09-13T10:25:37.546Z,3.50
2023-09-13T10:26:37.532Z,2.20
2023-09-13T10:27:37.545Z,2.20
2023-09-13T10:28:37.504Z,3.40
2023-09-13T10:29:37.482Z,7.00
2023-09-13T10:30:37.576Z,5.20
2023-09-13T10:31:37.546Z,1.70
2023-09-13T10:32:37.527Z,3.00
2023-09-13T10:33:37.428Z,4.00
2023-09-13T10:34:37.433Z,3.30
2023-09-13T10:35:37.433Z,2.20
2023-09-13T10:36:37.429Z,2.70
2023-09-13T10:37:37.408Z,2.40
2023-09-13T10:38:37.372Z,3.50
2023-09-13T10:39:37.392Z,1.20
2023-09-13T10:40:37.425Z,3.00
2023-09-13T10:41:37.432Z,2.00
2023-09-13T10:42:37.335Z,3.10
2023-09-13T10:43:37.383Z,1.40
2023-09-13T10:44:37.311Z,2.30
2023-09-13T10:45:37.304Z,2.40
2023-09-13T10:46:37.394Z,4.00
2023-09-13T10:47:37.440Z,3.60
2023-09-13T10:48:37.403Z,1.70
2023-09-13T10:49:37.268Z,2.20
2023-09-13T10:50:37.289Z,1.90
2023-09-13T10:51:37.288Z,3.20
2023-09-13T10:52:37.233Z,1.90
2023-09-13T10:53:37.219Z,0.90
2023-09-13T10:54:37.266Z,3.90
2023-09-13T10:55:37.214Z,2.40
2023-09-13T10:56:37.180Z,3.10
2023-09-13T10:57:37.208Z,4.00
2023-09-13T10:58:37.175Z,1.10
2023-09-13T10:59:37.160Z,0.80
2023-09-13T11:00:37.174Z,5.20
2023-09-13T11:01:37.203Z,1.90
2023-09-13T11:02:37.356Z,1.00
2023-09-13T11:03:37.209Z,1.40
2023-09-13T11:04:37.121Z,3.10
2023-09-13T11:05:37.105Z,1.60
2023-09-13T11:06:37.088Z,3.50
2023-09-13T11:07:37.078Z,2.90
2023-09-13T11:08:37.066Z,1.80
2023-09-13T11:09:37.080Z,1.10
2023-09-13T11:10:37.116Z,1.70
2023-09-13T11:11:37.047Z,1.90
2023-09-13T11:12:37.010Z,1.10
2023-09-13T11:13:37.023Z,5.90
2023-09-13T11:14:37.065Z,1.60
2023-09-13T11:15:37.016Z,2.00
2023-09-13T11:16:37.081Z,1.90
2023-09-13T11:17:37.089Z,1.50
2023-09-13T11:18:36.945Z,1.50
2023-09-13T11:19:36.971Z,3.80
2023-09-13T11:20:36.954Z,1.70
2023-09-13T11:21:36.915Z,2.40
2023-09-13T11:22:36.940Z,2.70
2023-09-13T11:23:36.953Z,2.20
2023-09-13T11:24:48.750Z,3.20
2023-09-13T11:25:52.335Z,3.30
2023-09-13T11:26:38.440Z,1.40
2023-09-13T11:27:36.859Z,1.60
2023-09-13T11:28:36.976Z,0.50
2023-09-13T11:29:36.857Z,1.70
2023-09-13T11:30:36.833Z,3.80
2023-09-13T11:31:36.852Z,1.60
2023-09-13T11:32:36.825Z,1.20
2023-09-13T11:33:36.868Z,2.20
2023-09-13T11:34:36.809Z,1.60
2023-09-13T11:35:36.772Z,2.10
2023-09-13T11:36:36.765Z,1.80
2023-09-13T11:37:36.787Z,2.70
2023-09-13T11:38:36.778Z,2.90
2023-09-13T11:39:36.744Z,0.50
2023-09-13T11:40:36.727Z,1.90
2023-09-13T11:41:51.413Z,1.80
2023-09-13T11:42:36.760Z,4.20
2023-09-13T11:43:36.750Z,1.50
2023-09-13T11:44:36.719Z,1.90
2023-09-13T11:45:36.753Z,0.60
2023-09-13T11:46:36.801Z,1.20
2023-09-13T11:47:36.933Z,1.00
2023-09-13T11:48:53.381Z,1.60
2023-09-13T11:49:38.353Z,2.50
2023-09-13T11:50:46.482Z,1.20
2023-09-13T11:51:50.516Z,1.10
2023-09-13T11:53:37.677Z,1.60
2023-09-13T11:54:36.660Z,1.90
2023-09-13T11:55:38.368Z,1.40
2023-09-13T11:56:45.575Z,1.40
2023-09-13T11:57:54.706Z,1.10
2023-09-13T11:58:44.926Z,1.80
2023-09-13T11:59:36.722Z,1.70
2023-09-13T12:00:37.061Z,3.50
2023-09-13T12:01:38.322Z,1.80
2023-09-13T12:02:37.767Z,2.40
2023-09-13T12:04:23.208Z,1.90
2023-09-13T12:04:54.502Z,0.70
2023-09-13T12:06:37.172Z,0.80
2023-09-13T12:07:38.937Z,2.40
2023-09-13T12:08:37.271Z,4.00
2023-09-13T12:09:39.140Z,1.00
2023-09-13T12:10:37.623Z,1.50
2023-09-13T12:11:39.645Z,2.10
2023-09-13T12:12:46.289Z,2.10
2023-09-13T12:16:36.433Z,1.30
2023-09-13T12:17:36.448Z,0.60
2023-09-13T12:18:36.381Z,0.70
2023-09-13T12:19:36.302Z,1.50
2023-09-13T12:20:36.341Z,1.70
2023-09-13T12:21:36.339Z,1.90
2023-09-13T12:22:36.291Z,2.80
2023-09-13T12:23:36.261Z,1.40
2023-09-13T12:24:36.352Z,2.30
2023-09-13T12:25:36.279Z,2.80
2023-09-13T12:26:36.270Z,1.30
2023-09-13T12:27:36.316Z,3.40
2023-09-13T12:28:36.291Z,1.50
2023-09-13T12:29:36.242Z,0.90
2023-09-13T12:30:36.334Z,2.10
2023-09-13T12:31:36.239Z,2.40
2023-09-13T12:32:36.190Z,1.80
2023-09-13T12:33:36.213Z,2.80
2023-09-13T12:34:36.166Z,1.60
2023-09-13T12:35:36.162Z,1.50
2023-09-13T12:36:36.202Z,2.30
2023-09-13T12:37:36.126Z,3.30
2023-09-13T12:38:36.130Z,2.60
2023-09-13T12:39:36.228Z,1.20
2023-09-13T12:40:36.100Z,2.80
2023-09-13T12:41:36.091Z,1.40
2023-09-13T12:42:36.119Z,0.90
2023-09-13T12:43:36.094Z,2.60
2023-09-13T12:44:36.075Z,2.30
2023-09-13T12:45:36.063Z,1.10
2023-09-13T12:46:36.076Z,1.60
2023-09-13T12:47:36.062Z,3.00
2023-09-13T12:48:36.136Z,1.90
2023-09-13T12:49:35.987Z,3.20
2023-09-13T12:50:37.580Z,3.70
2023-09-13T12:51:36.047Z,1.50
2023-09-13T12:52:36.006Z,2.20
2023-09-13T12:53:35.980Z,4.50
2023-09-13T12:54:36.017Z,3.20
2023-09-13T12:55:35.927Z,1.50
2023-09-13T12:56:35.921Z,1.60
2023-09-13T12:57:35.981Z,3.10
2023-09-13T12:58:35.922Z,3.70
2023-09-13T12:59:35.895Z,2.00
2023-09-13T13:00:35.919Z,1.60
2023-09-13T13:01:35.946Z,2.10